sensor_id;sensor_type;location;lat;lon;timestamp;pressure;altitude;pressure_sealevel;temperature
76476;BMP280;65308;50.078;14.854;2024-02-21T00:00:11;99922.88;;;8.96
76476;BMP280;65308;50.078;14.854;2024-02-21T00:02:38;99918.97;;;9.00
76476;BMP280;65308;50.078;14.854;2024-02-21T00:05:05;99927.00;;;8.77
76476;BMP280;65308;50.078;14.854;2024-02-21T00:07:34;99922.41;;;8.77
76476;BMP280;65308;50.078;14.854;2024-02-21T00:10:00;99917.81;;;8.78
76476;BMP280;65308;50.078;14.854;2024-02-21T00:12:27;99916.44;;;8.69
76476;BMP280;65308;50.078;14.854;2024-02-21T00:14:53;99916.69;;;8.52
76476;BMP280;65308;50.078;14.854;2024-02-21T00:17:20;99911.03;;;8.46
76476;BMP280;65308;50.078;14.854;2024-02-21T00:19:46;99915.19;;;8.51
76476;BMP280;65308;50.078;14.854;2024-02-21T00:22:13;99910.41;;;8.38
76476;BMP280;65308;50.078;14.854;2024-02-21T00:24:41;99899.41;;;8.36
76476;BMP280;65308;50.078;14.854;2024-02-21T00:27:08;99898.16;;;8.41
76476;BMP280;65308;50.078;14.854;2024-02-21T00:29:34;99900.94;;;8.34
76476;BMP280;65308;50.078;14.854;2024-02-21T00:32:01;99895.00;;;8.22
76476;BMP280;65308;50.078;14.854;2024-02-21T00:34:27;99891.28;;;8.43
76476;BMP280;65308;50.078;14.854;2024-02-21T00:36:54;99889.88;;;8.35
76476;BMP280;65308;50.078;14.854;2024-02-21T00:39:20;99894.94;;;8.26
76476;BMP280;65308;50.078;14.854;2024-02-21T00:41:48;99884.72;;;8.21
76476;BMP280;65308;50.078;14.854;2024-02-21T00:44:15;99885.81;;;8.27
76476;BMP280;65308;50.078;14.854;2024-02-21T00:46:41;99882.91;;;8.14
76476;BMP280;65308;50.078;14.854;2024-02-21T00:49:08;99880.09;;;7.98
76476;BMP280;65308;50.078;14.854;2024-02-21T00:51:35;99884.59;;;8.01
76476;BMP280;65308;50.078;14.854;2024-02-21T00:54:01;99875.41;;;8.06
76476;BMP280;65308;50.078;14.854;2024-02-21T00:56:28;99868.63;;;8.01
76476;BMP280;65308;50.078;14.854;2024-02-21T00:58:56;99869.63;;;8.11
76476;BMP280;65308;50.078;14.854;2024-02-21T01:01:23;99865.56;;;8.30
76476;BMP280;65308;50.078;14.854;2024-02-21T01:03:50;99865.38;;;8.17
76476;BMP280;65308;50.078;14.854;2024-02-21T01:06:18;99867.59;;;8.18
76476;BMP280;65308;50.078;14.854;2024-02-21T01:08:46;99865.28;;;8.24
76476;BMP280;65308;50.078;14.854;2024-02-21T01:11:12;99865.16;;;8.31
76476;BMP280;65308;50.078;14.854;2024-02-21T01:13:39;99857.69;;;8.46
76476;BMP280;65308;50.078;14.854;2024-02-21T01:16:07;99852.94;;;8.57
76476;BMP280;65308;50.078;14.854;2024-02-21T01:18:34;99854.31;;;8.65
76476;BMP280;65308;50.078;14.854;2024-02-21T01:21:01;99858.06;;;8.72
76476;BMP280;65308;50.078;14.854;2024-02-21T01:23:27;99847.63;;;8.81
76476;BMP280;65308;50.078;14.854;2024-02-21T01:25:54;99841.56;;;8.77
76476;BMP280;65308;50.078;14.854;2024-02-21T01:28:20;99843.88;;;8.75
76476;BMP280;65308;50.078;14.854;2024-02-21T01:30:47;99849.50;;;8.80
76476;BMP280;65308;50.078;14.854;2024-02-21T01:33:15;99839.28;;;8.75
76476;BMP280;65308;50.078;14.854;2024-02-21T01:35:42;99833.19;;;8.75
76476;BMP280;65308;50.078;14.854;2024-02-21T01:38:08;99835.81;;;8.78
76476;BMP280;65308;50.078;14.854;2024-02-21T01:40:35;99835.03;;;8.81
76476;BMP280;65308;50.078;14.854;2024-02-21T01:43:03;99828.34;;;8.69
76476;BMP280;65308;50.078;14.854;2024-02-21T01:45:29;99816.28;;;8.61
76476;BMP280;65308;50.078;14.854;2024-02-21T01:47:56;99808.94;;;8.45
76476;BMP280;65308;50.078;14.854;2024-02-21T01:50:24;99815.34;;;8.48
76476;BMP280;65308;50.078;14.854;2024-02-21T01:52:51;99803.38;;;8.33
76476;BMP280;65308;50.078;14.854;2024-02-21T01:55:17;99811.13;;;8.27
76476;BMP280;65308;50.078;14.854;2024-02-21T01:57:44;99800.53;;;8.20
76476;BMP280;65308;50.078;14.854;2024-02-21T02:00:13;99806.78;;;8.10
76476;BMP280;65308;50.078;14.854;2024-02-21T02:02:41;99793.66;;;8.22
76476;BMP280;65308;50.078;14.854;2024-02-21T02:05:09;99792.41;;;8.04
76476;BMP280;65308;50.078;14.854;2024-02-21T02:07:37;99796.84;;;7.87
76476;BMP280;65308;50.078;14.854;2024-02-21T02:10:04;99794.94;;;7.87
76476;BMP280;65308;50.078;14.854;2024-02-21T02:12:31;99788.72;;;7.94
76476;BMP280;65308;50.078;14.854;2024-02-21T02:14:59;99777.84;;;7.81
76476;BMP280;65308;50.078;14.854;2024-02-21T02:17:25;99775.38;;;7.67
76476;BMP280;65308;50.078;14.854;2024-02-21T02:19:52;99774.94;;;7.72
76476;BMP280;65308;50.078;14.854;2024-02-21T02:22:22;99774.44;;;7.81
76476;BMP280;65308;50.078;14.854;2024-02-21T02:24:51;99774.09;;;7.78
76476;BMP280;65308;50.078;14.854;2024-02-21T02:27:17;99774.75;;;7.86
76476;BMP280;65308;50.078;14.854;2024-02-21T02:29:44;99770.44;;;7.96
76476;BMP280;65308;50.078;14.854;2024-02-21T02:32:11;99762.59;;;8.09
76476;BMP280;65308;50.078;14.854;2024-02-21T02:34:37;99760.78;;;8.02
76476;BMP280;65308;50.078;14.854;2024-02-21T02:37:05;99763.31;;;8.13
76476;BMP280;65308;50.078;14.854;2024-02-21T02:39:31;99762.28;;;8.30
76476;BMP280;65308;50.078;14.854;2024-02-21T02:41:59;99760.44;;;8.27
76476;BMP280;65308;50.078;14.854;2024-02-21T02:44:26;99753.47;;;8.33
76476;BMP280;65308;50.078;14.854;2024-02-21T02:46:52;99754.75;;;8.25
76476;BMP280;65308;50.078;14.854;2024-02-21T02:49:19;99746.81;;;8.21
76476;BMP280;65308;50.078;14.854;2024-02-21T02:51:55;99752.94;;;8.42
76476;BMP280;65308;50.078;14.854;2024-02-21T02:54:21;99746.50;;;8.39
76476;BMP280;65308;50.078;14.854;2024-02-21T02:56:49;99735.16;;;8.35
76476;BMP280;65308;50.078;14.854;2024-02-21T02:59:18;99738.59;;;8.36
76476;BMP280;65308;50.078;14.854;2024-02-21T03:01:44;99743.00;;;8.42
76476;BMP280;65308;50.078;14.854;2024-02-21T03:04:13;99734.66;;;8.40
76476;BMP280;65308;50.078;14.854;2024-02-21T03:06:40;99731.72;;;8.35
76476;BMP280;65308;50.078;14.854;2024-02-21T03:09:06;99729.00;;;8.38
76476;BMP280;65308;50.078;14.854;2024-02-21T03:11:34;99727.38;;;8.44
76476;BMP280;65308;50.078;14.854;2024-02-21T03:14:00;99723.66;;;8.38
76476;BMP280;65308;50.078;14.854;2024-02-21T03:16:28;99726.47;;;8.31
76476;BMP280;65308;50.078;14.854;2024-02-21T03:18:55;99728.44;;;8.47
76476;BMP280;65308;50.078;14.854;2024-02-21T03:21:21;99726.66;;;8.40
76476;BMP280;65308;50.078;14.854;2024-02-21T03:23:48;99712.88;;;8.45
76476;BMP280;65308;50.078;14.854;2024-02-21T03:26:20;99713.44;;;8.33
76476;BMP280;65308;50.078;14.854;2024-02-21T03:28:46;99714.50;;;8.39
76476;BMP280;65308;50.078;14.854;2024-02-21T03:31:13;99725.78;;;8.47
76476;BMP280;65308;50.078;14.854;2024-02-21T03:33:42;99722.19;;;8.57
76476;BMP280;65308;50.078;14.854;2024-02-21T03:36:13;99724.72;;;8.84
76476;BMP280;65308;50.078;14.854;2024-02-21T03:38:39;99717.09;;;8.83
76476;BMP280;65308;50.078;14.854;2024-02-21T03:41:06;99721.50;;;8.73
76476;BMP280;65308;50.078;14.854;2024-02-21T03:43:33;99726.31;;;8.82
76476;BMP280;65308;50.078;14.854;2024-02-21T03:45:59;99718.41;;;8.94
76476;BMP280;65308;50.078;14.854;2024-02-21T03:48:26;99718.97;;;8.66
76476;BMP280;65308;50.078;14.854;2024-02-21T03:50:54;99723.75;;;8.75
76476;BMP280;65308;50.078;14.854;2024-02-21T03:53:21;99716.66;;;8.88
76476;BMP280;65308;50.078;14.854;2024-02-21T03:55:47;99715.28;;;8.80
76476;BMP280;65308;50.078;14.854;2024-02-21T03:58:14;99710.03;;;8.76
76476;BMP280;65308;50.078;14.854;2024-02-21T04:00:40;99712.88;;;8.85
76476;BMP280;65308;50.078;14.854;2024-02-21T04:03:07;99711.78;;;8.83
76476;BMP280;65308;50.078;14.854;2024-02-21T04:05:34;99708.59;;;8.72
76476;BMP280;65308;50.078;14.854;2024-02-21T04:08:05;99706.53;;;8.79
76476;BMP280;65308;50.078;14.854;2024-02-21T04:10:32;99706.78;;;8.85
76476;BMP280;65308;50.078;14.854;2024-02-21T04:12:58;99702.63;;;8.84
76476;BMP280;65308;50.078;14.854;2024-02-21T04:15:25;99695.44;;;8.61
76476;BMP280;65308;50.078;14.854;2024-02-21T04:17:51;99705.09;;;8.55
76476;BMP280;65308;50.078;14.854;2024-02-21T04:20:18;99699.91;;;8.64
76476;BMP280;65308;50.078;14.854;2024-02-21T04:22:45;99698.34;;;8.46
76476;BMP280;65308;50.078;14.854;2024-02-21T04:25:13;99700.34;;;8.42
76476;BMP280;65308;50.078;14.854;2024-02-21T04:27:39;99693.50;;;8.41
76476;BMP280;65308;50.078;14.854;2024-02-21T04:30:07;99693.72;;;8.51
76476;BMP280;65308;50.078;14.854;2024-02-21T04:32:35;99700.97;;;8.50
76476;BMP280;65308;50.078;14.854;2024-02-21T04:35:01;99691.59;;;8.42
76476;BMP280;65308;50.078;14.854;2024-02-21T04:37:28;99697.16;;;8.28
76476;BMP280;65308;50.078;14.854;2024-02-21T04:39:54;99690.03;;;8.21
76476;BMP280;65308;50.078;14.854;2024-02-21T04:42:22;99691.78;;;8.31
76476;BMP280;65308;50.078;14.854;2024-02-21T04:44:49;99678.25;;;8.18
76476;BMP280;65308;50.078;14.854;2024-02-21T04:47:15;99681.47;;;8.10
76476;BMP280;65308;50.078;14.854;2024-02-21T04:49:42;99681.75;;;8.15
76476;BMP280;65308;50.078;14.854;2024-02-21T04:52:09;99674.38;;;8.23
76476;BMP280;65308;50.078;14.854;2024-02-21T04:54:35;99666.03;;;8.21
76476;BMP280;65308;50.078;14.854;2024-02-21T04:57:02;99672.66;;;8.13
76476;BMP280;65308;50.078;14.854;2024-02-21T04:59:30;99668.66;;;8.24
76476;BMP280;65308;50.078;14.854;2024-02-21T05:01:57;99668.16;;;8.30
76476;BMP280;65308;50.078;14.854;2024-02-21T05:04:25;99668.78;;;8.37
76476;BMP280;65308;50.078;14.854;2024-02-21T05:06:52;99658.75;;;8.25
76476;BMP280;65308;50.078;14.854;2024-02-21T05:09:18;99664.66;;;8.36
76476;BMP280;65308;50.078;14.854;2024-02-21T05:11:45;99659.59;;;8.18
76476;BMP280;65308;50.078;14.854;2024-02-21T05:14:11;99667.91;;;8.24
76476;BMP280;65308;50.078;14.854;2024-02-21T05:16:39;99663.31;;;8.24
76476;BMP280;65308;50.078;14.854;2024-02-21T05:19:06;99662.88;;;8.06
76476;BMP280;65308;50.078;14.854;2024-02-21T05:21:33;99657.06;;;8.11
76476;BMP280;65308;50.078;14.854;2024-02-21T05:24:09;99652.13;;;8.10
76476;BMP280;65308;50.078;14.854;2024-02-21T05:26:36;99656.69;;;8.09
76476;BMP280;65308;50.078;14.854;2024-02-21T05:29:03;99660.38;;;7.95
76476;BMP280;65308;50.078;14.854;2024-02-21T05:31:54;99652.44;;;7.92
76476;BMP280;65308;50.078;14.854;2024-02-21T05:34:21;99648.41;;;7.80
76476;BMP280;65308;50.078;14.854;2024-02-21T05:36:51;99649.72;;;7.72
76476;BMP280;65308;50.078;14.854;2024-02-21T05:39:22;99647.72;;;7.76
76476;BMP280;65308;50.078;14.854;2024-02-21T05:41:52;99655.66;;;7.80
76476;BMP280;65308;50.078;14.854;2024-02-21T05:44:23;99646.00;;;7.66
76476;BMP280;65308;50.078;14.854;2024-02-21T05:46:51;99652.38;;;7.72
76476;BMP280;65308;50.078;14.854;2024-02-21T05:49:17;99651.31;;;7.66
76476;BMP280;65308;50.078;14.854;2024-02-21T05:51:44;99649.63;;;7.79
76476;BMP280;65308;50.078;14.854;2024-02-21T05:54:11;99649.94;;;8.05
76476;BMP280;65308;50.078;14.854;2024-02-21T05:56:37;99652.19;;;8.06
76476;BMP280;65308;50.078;14.854;2024-02-21T05:59:04;99653.19;;;8.16
76476;BMP280;65308;50.078;14.854;2024-02-21T06:01:31;99654.09;;;8.29
76476;BMP280;65308;50.078;14.854;2024-02-21T06:03:59;99651.63;;;8.38
76476;BMP280;65308;50.078;14.854;2024-02-21T06:06:26;99652.72;;;8.61
76476;BMP280;65308;50.078;14.854;2024-02-21T06:08:53;99654.25;;;8.82
76476;BMP280;65308;50.078;14.854;2024-02-21T06:11:20;99658.72;;;9.05
76476;BMP280;65308;50.078;14.854;2024-02-21T06:13:46;99653.78;;;9.03
76476;BMP280;65308;50.078;14.854;2024-02-21T06:16:13;99653.88;;;9.00
76476;BMP280;65308;50.078;14.854;2024-02-21T06:18:40;99649.38;;;9.13
76476;BMP280;65308;50.078;14.854;2024-02-21T06:21:08;99647.88;;;9.12
76476;BMP280;65308;50.078;14.854;2024-02-21T06:23:36;99649.69;;;8.99
76476;BMP280;65308;50.078;14.854;2024-02-21T06:26:03;99639.69;;;9.03
76476;BMP280;65308;50.078;14.854;2024-02-21T06:28:30;99646.59;;;9.00
76476;BMP280;65308;50.078;14.854;2024-02-21T06:30:56;99641.53;;;9.06
76476;BMP280;65308;50.078;14.854;2024-02-21T06:33:23;99642.75;;;9.01
76476;BMP280;65308;50.078;14.854;2024-02-21T06:35:50;99642.47;;;9.15
76476;BMP280;65308;50.078;14.854;2024-02-21T06:38:20;99637.84;;;9.00
76476;BMP280;65308;50.078;14.854;2024-02-21T06:40:47;99640.59;;;8.96
76476;BMP280;65308;50.078;14.854;2024-02-21T06:43:18;99629.91;;;8.96
76476;BMP280;65308;50.078;14.854;2024-02-21T06:45:45;99638.81;;;8.89
76476;BMP280;65308;50.078;14.854;2024-02-21T06:48:16;99637.81;;;8.83
76476;BMP280;65308;50.078;14.854;2024-02-21T06:50:43;99639.56;;;8.90
76476;BMP280;65308;50.078;14.854;2024-02-21T06:53:10;99642.50;;;8.96
76476;BMP280;65308;50.078;14.854;2024-02-21T06:55:38;99641.06;;;8.91
76476;BMP280;65308;50.078;14.854;2024-02-21T06:58:04;99640.84;;;9.02
76476;BMP280;65308;50.078;14.854;2024-02-21T07:00:33;99637.13;;;9.15
76476;BMP280;65308;50.078;14.854;2024-02-21T07:03:00;99634.38;;;9.19
76476;BMP280;65308;50.078;14.854;2024-02-21T07:05:27;99626.28;;;9.23
76476;BMP280;65308;50.078;14.854;2024-02-21T07:07:54;99632.97;;;9.14
76476;BMP280;65308;50.078;14.854;2024-02-21T07:10:21;99642.47;;;9.15
76476;BMP280;65308;50.078;14.854;2024-02-21T07:12:49;99636.44;;;9.28
76476;BMP280;65308;50.078;14.854;2024-02-21T07:15:17;99636.19;;;9.06
76476;BMP280;65308;50.078;14.854;2024-02-21T07:17:47;99644.88;;;9.10
76476;BMP280;65308;50.078;14.854;2024-02-21T07:20:16;99633.59;;;9.35
76476;BMP280;65308;50.078;14.854;2024-02-21T07:22:43;99627.81;;;9.40
76476;BMP280;65308;50.078;14.854;2024-02-21T07:25:10;99632.28;;;9.43
76476;BMP280;65308;50.078;14.854;2024-02-21T07:27:37;99635.13;;;9.52
76476;BMP280;65308;50.078;14.854;2024-02-21T07:30:06;99628.59;;;9.70
76476;BMP280;65308;50.078;14.854;2024-02-21T07:32:33;99628.09;;;9.75
76476;BMP280;65308;50.078;14.854;2024-02-21T07:34:59;99623.03;;;9.64
76476;BMP280;65308;50.078;14.854;2024-02-21T07:37:26;99622.84;;;9.71
76476;BMP280;65308;50.078;14.854;2024-02-21T07:39:53;99608.97;;;9.76
76476;BMP280;65308;50.078;14.854;2024-02-21T07:42:19;99616.72;;;9.87
76476;BMP280;65308;50.078;14.854;2024-02-21T07:44:46;99621.34;;;10.16
76476;BMP280;65308;50.078;14.854;2024-02-21T07:47:14;99618.47;;;10.23
76476;BMP280;65308;50.078;14.854;2024-02-21T07:49:41;99619.75;;;10.31
76476;BMP280;65308;50.078;14.854;2024-02-21T07:52:08;99609.75;;;10.48
76476;BMP280;65308;50.078;14.854;2024-02-21T07:54:35;99607.81;;;10.35
76476;BMP280;65308;50.078;14.854;2024-02-21T07:57:02;99610.63;;;10.45
76476;BMP280;65308;50.078;14.854;2024-02-21T07:59:29;99610.22;;;10.59
76476;BMP280;65308;50.078;14.854;2024-02-21T08:01:56;99610.41;;;10.65
76476;BMP280;65308;50.078;14.854;2024-02-21T08:04:24;99610.31;;;10.81
76476;BMP280;65308;50.078;14.854;2024-02-21T08:06:52;99616.22;;;11.01
76476;BMP280;65308;50.078;14.854;2024-02-21T08:09:21;99607.75;;;11.03
76476;BMP280;65308;50.078;14.854;2024-02-21T08:11:48;99617.59;;;11.06
76476;BMP280;65308;50.078;14.854;2024-02-21T08:14:15;99611.19;;;11.03
76476;BMP280;65308;50.078;14.854;2024-02-21T08:16:42;99614.28;;;11.02
76476;BMP280;65308;50.078;14.854;2024-02-21T08:19:09;99612.78;;;11.01
76476;BMP280;65308;50.078;14.854;2024-02-21T08:21:37;99612.75;;;11.14
76476;BMP280;65308;50.078;14.854;2024-02-21T08:24:04;99610.13;;;11.01
76476;BMP280;65308;50.078;14.854;2024-02-21T08:26:40;99608.94;;;11.02
76476;BMP280;65308;50.078;14.854;2024-02-21T08:29:07;99599.63;;;10.94
76476;BMP280;65308;50.078;14.854;2024-02-21T08:31:34;99596.81;;;11.10
76476;BMP280;65308;50.078;14.854;2024-02-21T08:34:01;99593.03;;;11.07
76476;BMP280;65308;50.078;14.854;2024-02-21T08:36:29;99591.75;;;11.12
76476;BMP280;65308;50.078;14.854;2024-02-21T08:38:57;99591.53;;;11.32
76476;BMP280;65308;50.078;14.854;2024-02-21T08:41:24;99587.16;;;11.47
76476;BMP280;65308;50.078;14.854;2024-02-21T08:43:50;99579.13;;;11.60
76476;BMP280;65308;50.078;14.854;2024-02-21T08:46:17;99580.59;;;11.61
76476;BMP280;65308;50.078;14.854;2024-02-21T08:48:44;99577.50;;;11.63
76476;BMP280;65308;50.078;14.854;2024-02-21T08:51:12;99578.25;;;11.63
76476;BMP280;65308;50.078;14.854;2024-02-21T08:53:39;99578.97;;;11.64
76476;BMP280;65308;50.078;14.854;2024-02-21T08:56:07;99577.81;;;11.65
76476;BMP280;65308;50.078;14.854;2024-02-21T08:58:35;99576.25;;;11.76
76476;BMP280;65308;50.078;14.854;2024-02-21T09:01:02;99572.47;;;11.65
76476;BMP280;65308;50.078;14.854;2024-02-21T09:03:31;99578.75;;;11.71
76476;BMP280;65308;50.078;14.854;2024-02-21T09:05:59;99570.03;;;11.79
76476;BMP280;65308;50.078;14.854;2024-02-21T09:08:26;99578.06;;;11.79
76476;BMP280;65308;50.078;14.854;2024-02-21T09:10:53;99573.56;;;11.98
76476;BMP280;65308;50.078;14.854;2024-02-21T09:13:21;99580.00;;;12.01
76476;BMP280;65308;50.078;14.854;2024-02-21T09:15:49;99576.34;;;11.95
76476;BMP280;65308;50.078;14.854;2024-02-21T09:18:15;99586.66;;;12.18
76476;BMP280;65308;50.078;14.854;2024-02-21T09:20:43;99591.09;;;12.34
76476;BMP280;65308;50.078;14.854;2024-02-21T09:23:09;99598.75;;;12.23
76476;BMP280;65308;50.078;14.854;2024-02-21T09:25:36;99591.94;;;12.09
76476;BMP280;65308;50.078;14.854;2024-02-21T09:28:03;99596.59;;;11.87
76476;BMP280;65308;50.078;14.854;2024-02-21T09:30:32;99596.94;;;11.76
76476;BMP280;65308;50.078;14.854;2024-02-21T09:33:01;99600.41;;;11.76
76476;BMP280;65308;50.078;14.854;2024-02-21T09:35:32;99595.44;;;11.75
76476;BMP280;65308;50.078;14.854;2024-02-21T09:37:59;99593.84;;;11.99
76476;BMP280;65308;50.078;14.854;2024-02-21T09:40:25;99590.84;;;11.97
76476;BMP280;65308;50.078;14.854;2024-02-21T09:43:02;99590.75;;;12.01
76476;BMP280;65308;50.078;14.854;2024-02-21T09:45:30;99592.47;;;12.17
76476;BMP280;65308;50.078;14.854;2024-02-21T09:48:12;99573.47;;;12.33
76476;BMP280;65308;50.078;14.854;2024-02-21T09:50:43;99576.38;;;12.48
76476;BMP280;65308;50.078;14.854;2024-02-21T09:53:12;99572.28;;;12.74
76476;BMP280;65308;50.078;14.854;2024-02-21T09:55:39;99572.31;;;12.93
76476;BMP280;65308;50.078;14.854;2024-02-21T09:58:07;99568.19;;;13.10
76476;BMP280;65308;50.078;14.854;2024-02-21T10:00:35;99556.53;;;13.32
76476;BMP280;65308;50.078;14.854;2024-02-21T10:03:03;99548.00;;;13.61
76476;BMP280;65308;50.078;14.854;2024-02-21T10:05:35;99546.69;;;14.17
76476;BMP280;65308;50.078;14.854;2024-02-21T10:08:02;99540.28;;;14.71
76476;BMP280;65308;50.078;14.854;2024-02-21T10:10:29;99519.94;;;14.94
76476;BMP280;65308;50.078;14.854;2024-02-21T10:12:56;99518.97;;;15.36
76476;BMP280;65308;50.078;14.854;2024-02-21T10:15:23;99516.00;;;15.49
76476;BMP280;65308;50.078;14.854;2024-02-21T10:17:58;99514.59;;;15.83
76476;BMP280;65308;50.078;14.854;2024-02-21T10:20:27;99513.00;;;16.27
76476;BMP280;65308;50.078;14.854;2024-02-21T10:23:00;99521.38;;;16.90
76476;BMP280;65308;50.078;14.854;2024-02-21T10:25:28;99508.63;;;17.48
76476;BMP280;65308;50.078;14.854;2024-02-21T10:27:54;99496.38;;;17.90
76476;BMP280;65308;50.078;14.854;2024-02-21T10:30:21;99497.44;;;18.03
76476;BMP280;65308;50.078;14.854;2024-02-21T10:32:51;99505.00;;;17.99
76476;BMP280;65308;50.078;14.854;2024-02-21T10:35:27;99515.75;;;17.83
76476;BMP280;65308;50.078;14.854;2024-02-21T10:37:55;99516.97;;;17.82
76476;BMP280;65308;50.078;14.854;2024-02-21T10:40:22;99522.34;;;17.70
76476;BMP280;65308;50.078;14.854;2024-02-21T10:42:52;99520.75;;;17.90
76476;BMP280;65308;50.078;14.854;2024-02-21T10:45:23;99504.81;;;18.09
76476;BMP280;65308;50.078;14.854;2024-02-21T10:47:55;99506.34;;;18.15
76476;BMP280;65308;50.078;14.854;2024-02-21T10:50:26;99509.16;;;17.95
76476;BMP280;65308;50.078;14.854;2024-02-21T10:53:02;99510.56;;;17.79
76476;BMP280;65308;50.078;14.854;2024-02-21T10:55:38;99512.38;;;17.56
76476;BMP280;65308;50.078;14.854;2024-02-21T10:58:08;99507.22;;;17.58
76476;BMP280;65308;50.078;14.854;2024-02-21T11:00:36;99516.28;;;17.55
76476;BMP280;65308;50.078;14.854;2024-02-21T11:03:04;99511.34;;;17.48
76476;BMP280;65308;50.078;14.854;2024-02-21T11:05:34;99507.31;;;17.38
76476;BMP280;65308;50.078;14.854;2024-02-21T11:08:01;99501.50;;;17.50
76476;BMP280;65308;50.078;14.854;2024-02-21T11:10:29;99493.94;;;17.60
76476;BMP280;65308;50.078;14.854;2024-02-21T11:13:05;99493.47;;;17.99
76476;BMP280;65308;50.078;14.854;2024-02-21T11:15:33;99489.03;;;18.01
76476;BMP280;65308;50.078;14.854;2024-02-21T11:18:00;99488.84;;;18.11
76476;BMP280;65308;50.078;14.854;2024-02-21T11:20:35;99489.41;;;18.26
76476;BMP280;65308;50.078;14.854;2024-02-21T11:23:03;99483.78;;;18.35
76476;BMP280;65308;50.078;14.854;2024-02-21T11:25:30;99473.34;;;18.17
76476;BMP280;65308;50.078;14.854;2024-02-21T11:28:00;99471.66;;;18.25
76476;BMP280;65308;50.078;14.854;2024-02-21T11:30:27;99466.69;;;18.12
76476;BMP280;65308;50.078;14.854;2024-02-21T11:33:00;99462.69;;;18.02
76476;BMP280;65308;50.078;14.854;2024-02-21T11:35:31;99464.59;;;17.85
76476;BMP280;65308;50.078;14.854;2024-02-21T11:38:12;99464.50;;;17.73
76476;BMP280;65308;50.078;14.854;2024-02-21T11:40:43;99454.03;;;17.55
76476;BMP280;65308;50.078;14.854;2024-02-21T11:43:11;99461.91;;;17.21
76476;BMP280;65308;50.078;14.854;2024-02-21T11:45:38;99448.84;;;17.14
76476;BMP280;65308;50.078;14.854;2024-02-21T11:48:05;99443.16;;;17.12
76476;BMP280;65308;50.078;14.854;2024-02-21T11:50:34;99441.34;;;17.03
76476;BMP280;65308;50.078;14.854;2024-02-21T11:53:02;99442.56;;;16.76
76476;BMP280;65308;50.078;14.854;2024-02-21T11:55:30;99432.63;;;16.68
76476;BMP280;65308;50.078;14.854;2024-02-21T11:57:57;99430.72;;;16.48
76476;BMP280;65308;50.078;14.854;2024-02-21T12:00:25;99419.66;;;16.25
76476;BMP280;65308;50.078;14.854;2024-02-21T12:02:52;99422.09;;;16.23
76476;BMP280;65308;50.078;14.854;2024-02-21T12:05:21;99427.75;;;16.25
76476;BMP280;65308;50.078;14.854;2024-02-21T12:07:47;99425.81;;;16.26
76476;BMP280;65308;50.078;14.854;2024-02-21T12:10:14;99426.13;;;16.13
76476;BMP280;65308;50.078;14.854;2024-02-21T12:12:43;99419.16;;;16.07
76476;BMP280;65308;50.078;14.854;2024-02-21T12:15:13;99414.47;;;16.22
76476;BMP280;65308;50.078;14.854;2024-02-21T12:17:42;99410.28;;;16.41
76476;BMP280;65308;50.078;14.854;2024-02-21T12:20:09;99406.88;;;16.46
76476;BMP280;65308;50.078;14.854;2024-02-21T12:22:37;99403.00;;;16.53
76476;BMP280;65308;50.078;14.854;2024-02-21T12:25:04;99403.28;;;16.55
76476;BMP280;65308;50.078;14.854;2024-02-21T12:27:44;99395.19;;;16.55
76476;BMP280;65308;50.078;14.854;2024-02-21T12:30:11;99384.91;;;16.59
76476;BMP280;65308;50.078;14.854;2024-02-21T12:32:42;99384.19;;;16.38
76476;BMP280;65308;50.078;14.854;2024-02-21T12:35:10;99369.84;;;16.27
76476;BMP280;65308;50.078;14.854;2024-02-21T12:37:37;99360.63;;;16.18
76476;BMP280;65308;50.078;14.854;2024-02-21T12:40:06;99357.16;;;16.12
76476;BMP280;65308;50.078;14.854;2024-02-21T12:42:38;99358.84;;;15.89
76476;BMP280;65308;50.078;14.854;2024-02-21T12:45:07;99361.88;;;15.77
76476;BMP280;65308;50.078;14.854;2024-02-21T12:47:34;99364.22;;;15.69
76476;BMP280;65308;50.078;14.854;2024-02-21T12:50:01;99361.75;;;15.50
76476;BMP280;65308;50.078;14.854;2024-02-21T12:52:29;99361.91;;;15.62
76476;BMP280;65308;50.078;14.854;2024-02-21T12:54:56;99349.66;;;15.81
76476;BMP280;65308;50.078;14.854;2024-02-21T12:57:24;99339.94;;;15.89
76476;BMP280;65308;50.078;14.854;2024-02-21T12:59:52;99333.19;;;15.79
76476;BMP280;65308;50.078;14.854;2024-02-21T13:02:20;99324.88;;;15.83
76476;BMP280;65308;50.078;14.854;2024-02-21T13:04:47;99314.38;;;15.64
76476;BMP280;65308;50.078;14.854;2024-02-21T13:07:13;99305.84;;;15.51
76476;BMP280;65308;50.078;14.854;2024-02-21T13:09:41;99309.38;;;15.57
76476;BMP280;65308;50.078;14.854;2024-02-21T13:12:10;99301.66;;;15.70
76476;BMP280;65308;50.078;14.854;2024-02-21T13:14:37;99292.63;;;15.94
76476;BMP280;65308;50.078;14.854;2024-02-21T13:17:05;99281.69;;;15.83
76476;BMP280;65308;50.078;14.854;2024-02-21T13:19:33;99282.09;;;15.96
76476;BMP280;65308;50.078;14.854;2024-02-21T13:22:00;99278.16;;;15.97
76476;BMP280;65308;50.078;14.854;2024-02-21T13:24:27;99282.44;;;16.04
76476;BMP280;65308;50.078;14.854;2024-02-21T13:26:54;99271.75;;;16.15
76476;BMP280;65308;50.078;14.854;2024-02-21T13:29:21;99258.28;;;16.20
76476;BMP280;65308;50.078;14.854;2024-02-21T13:31:47;99261.41;;;16.13
76476;BMP280;65308;50.078;14.854;2024-02-21T13:34:15;99253.03;;;16.37
76476;BMP280;65308;50.078;14.854;2024-02-21T13:36:43;99255.69;;;16.32
76476;BMP280;65308;50.078;14.854;2024-02-21T13:39:10;99259.13;;;16.27
76476;BMP280;65308;50.078;14.854;2024-02-21T13:41:41;99251.72;;;16.27
76476;BMP280;65308;50.078;14.854;2024-02-21T13:44:07;99247.41;;;16.09
76476;BMP280;65308;50.078;14.854;2024-02-21T13:46:35;99245.09;;;16.02
76476;BMP280;65308;50.078;14.854;2024-02-21T13:49:03;99248.91;;;15.90
76476;BMP280;65308;50.078;14.854;2024-02-21T13:51:32;99246.75;;;15.73
76476;BMP280;65308;50.078;14.854;2024-02-21T13:54:00;99239.88;;;15.72
76476;BMP280;65308;50.078;14.854;2024-02-21T13:56:27;99238.31;;;15.86
76476;BMP280;65308;50.078;14.854;2024-02-21T13:58:53;99230.81;;;15.75
76476;BMP280;65308;50.078;14.854;2024-02-21T14:01:20;99236.78;;;15.80
76476;BMP280;65308;50.078;14.854;2024-02-21T14:03:47;99225.41;;;15.70
76476;BMP280;65308;50.078;14.854;2024-02-21T14:06:14;99235.03;;;15.56